sensor_id;sensor_type;location;lat;lon;timestamp;temperature;humidity
6752;DHT22;3413;47.680;9.166;2023-05-17T00:01:15;14.40;93.40
6752;DHT22;3413;47.680;9.166;2023-05-17T00:06:28;14.50;93.30
6752;DHT22;3413;47.680;9.166;2023-05-17T00:11:39;14.40;93.20
6752;DHT22;3413;47.680;9.166;2023-05-17T00:16:43;14.50;93.30
6752;DHT22;3413;47.680;9.166;2023-05-17T00:21:52;14.50;93.20
6752;DHT22;3413;47.680;9.166;2023-05-17T00:26:55;14.50;93.10
6752;DHT22;3413;47.680;9.166;2023-05-17T00:32:00;14.60;93.10
6752;DHT22;3413;47.680;9.166;2023-05-17T00:37:05;14.60;93.30
6752;DHT22;3413;47.680;9.166;2023-05-17T00:42:08;14.60;93.10
6752;DHT22;3413;47.680;9.166;2023-05-17T00:47:11;14.60;93.10
6752;DHT22;3413;47.680;9.166;2023-05-17T00:52:13;14.40;92.90
6752;DHT22;3413;47.680;9.166;2023-05-17T00:57:15;14.40;93.00
6752;DHT22;3413;47.680;9.166;2023-05-17T01:02:17;14.50;92.90
6752;DHT22;3413;47.680;9.166;2023-05-17T01:07:19;14.50;92.90
6752;DHT22;3413;47.680;9.166;2023-05-17T01:23:43;14.40;92.80
6752;DHT22;3413;47.680;9.166;2023-05-17T01:28:52;14.40;92.70
6752;DHT22;3413;47.680;9.166;2023-05-17T01:33:55;14.20;92.60
6752;DHT22;3413;47.680;9.166;2023-05-17T01:38:59;14.10;92.50
6752;DHT22;3413;47.680;9.166;2023-05-17T01:44:26;14.10;92.50
6752;DHT22;3413;47.680;9.166;2023-05-17T01:49:39;14.10;92.40
6752;DHT22;3413;47.680;9.166;2023-05-17T01:54:46;14.10;92.30
6752;DHT22;3413;47.680;9.166;2023-05-17T01:59:51;14.00;92.30
6752;DHT22;3413;47.680;9.166;2023-05-17T02:04:54;14.00;92.20
6752;DHT22;3413;47.680;9.166;2023-05-17T02:09:56;14.00;92.20
6752;DHT22;3413;47.680;9.166;2023-05-17T02:14:58;13.90;92.10
6752;DHT22;3413;47.680;9.166;2023-05-17T02:20:00;13.80;92.00
6752;DHT22;3413;47.680;9.166;2023-05-17T02:25:02;13.80;92.00
6752;DHT22;3413;47.680;9.166;2023-05-17T02:30:04;13.80;91.90
6752;DHT22;3413;47.680;9.166;2023-05-17T02:35:07;13.70;91.90
6752;DHT22;3413;47.680;9.166;2023-05-17T02:40:10;13.70;91.90
6752;DHT22;3413;47.680;9.166;2023-05-17T02:45:12;13.60;91.80
6752;DHT22;3413;47.680;9.166;2023-05-17T02:50:14;13.60;91.70
6752;DHT22;3413;47.680;9.166;2023-05-17T02:55:16;13.50;91.70
6752;DHT22;3413;47.680;9.166;2023-05-17T03:00:18;13.50;91.60
6752;DHT22;3413;47.680;9.166;2023-05-17T03:05:21;13.50;91.60
6752;DHT22;3413;47.680;9.166;2023-05-17T03:10:25;13.40;91.40
6752;DHT22;3413;47.680;9.166;2023-05-17T03:15:27;13.40;91.40
6752;DHT22;3413;47.680;9.166;2023-05-17T03:20:30;13.50;91.50
6752;DHT22;3413;47.680;9.166;2023-05-17T03:25:33;13.50;91.40
6752;DHT22;3413;47.680;9.166;2023-05-17T03:30:35;13.40;91.30
6752;DHT22;3413;47.680;9.166;2023-05-17T03:35:38;13.40;91.30
6752;DHT22;3413;47.680;9.166;2023-05-17T03:40:40;13.40;91.30
6752;DHT22;3413;47.680;9.166;2023-05-17T03:45:42;13.50;91.30
6752;DHT22;3413;47.680;9.166;2023-05-17T03:50:45;13.40;91.20
6752;DHT22;3413;47.680;9.166;2023-05-17T03:55:47;13.40;91.30
6752;DHT22;3413;47.680;9.166;2023-05-17T04:00:51;13.40;91.20
6752;DHT22;3413;47.680;9.166;2023-05-17T04:06:02;13.40;91.20
6752;DHT22;3413;47.680;9.166;2023-05-17T04:11:08;13.30;91.10
6752;DHT22;3413;47.680;9.166;2023-05-17T04:16:17;13.30;91.10
6752;DHT22;3413;47.680;9.166;2023-05-17T04:21:19;13.40;91.10
6752;DHT22;3413;47.680;9.166;2023-05-17T04:26:22;13.30;91.10
6752;DHT22;3413;47.680;9.166;2023-05-17T04:31:24;13.30;91.10
6752;DHT22;3413;47.680;9.166;2023-05-17T04:36:26;13.30;91.00
6752;DHT22;3413;47.680;9.166;2023-05-17T04:41:29;13.20;91.00
6752;DHT22;3413;47.680;9.166;2023-05-17T04:46:33;13.20;91.00
6752;DHT22;3413;47.680;9.166;2023-05-17T04:51:35;13.10;90.90
6752;DHT22;3413;47.680;9.166;2023-05-17T04:56:37;13.10;90.90
6752;DHT22;3413;47.680;9.166;2023-05-17T05:01:45;13.20;90.90
6752;DHT22;3413;47.680;9.166;2023-05-17T05:06:47;13.20;90.90
6752;DHT22;3413;47.680;9.166;2023-05-17T05:11:50;13.10;90.90
6752;DHT22;3413;47.680;9.166;2023-05-17T05:16:52;13.10;90.90
6752;DHT22;3413;47.680;9.166;2023-05-17T05:21:56;13.10;90.90
6752;DHT22;3413;47.680;9.166;2023-05-17T05:26:58;13.20;90.90
6752;DHT22;3413;47.680;9.166;2023-05-17T05:32:01;13.20;90.90
6752;DHT22;3413;47.680;9.166;2023-05-17T05:37:07;13.30;90.90
6752;DHT22;3413;47.680;9.166;2023-05-17T05:42:09;13.30;90.90
6752;DHT22;3413;47.680;9.166;2023-05-17T05:47:11;13.30;90.90
6752;DHT22;3413;47.680;9.166;2023-05-17T05:52:14;13.20;90.90
6752;DHT22;3413;47.680;9.166;2023-05-17T05:57:18;13.20;90.80
6752;DHT22;3413;47.680;9.166;2023-05-17T06:02:20;13.20;90.60
6752;DHT22;3413;47.680;9.166;2023-05-17T06:07:22;13.10;90.70
6752;DHT22;3413;47.680;9.166;2023-05-17T06:12:24;13.20;90.80
6752;DHT22;3413;47.680;9.166;2023-05-17T06:17:27;13.20;90.70
6752;DHT22;3413;47.680;9.166;2023-05-17T06:22:29;13.20;90.80
6752;DHT22;3413;47.680;9.166;2023-05-17T06:27:34;13.20;90.70
6752;DHT22;3413;47.680;9.166;2023-05-17T06:32:36;13.20;90.70
6752;DHT22;3413;47.680;9.166;2023-05-17T06:37:38;13.30;90.70
6752;DHT22;3413;47.680;9.166;2023-05-17T06:42:40;13.20;90.60
6752;DHT22;3413;47.680;9.166;2023-05-17T06:47:42;13.30;90.80
6752;DHT22;3413;47.680;9.166;2023-05-17T06:52:44;13.30;90.80
6752;DHT22;3413;47.680;9.166;2023-05-17T06:57:47;13.30;90.80
6752;DHT22;3413;47.680;9.166;2023-05-17T07:02:49;13.40;90.80
6752;DHT22;3413;47.680;9.166;2023-05-17T07:07:51;13.40;90.80
6752;DHT22;3413;47.680;9.166;2023-05-17T07:12:53;13.60;90.90
6752;DHT22;3413;47.680;9.166;2023-05-17T07:17:55;13.70;91.00
6752;DHT22;3413;47.680;9.166;2023-05-17T07:22:57;13.80;91.00
6752;DHT22;3413;47.680;9.166;2023-05-17T07:27:59;13.80;91.00
6752;DHT22;3413;47.680;9.166;2023-05-17T07:33:01;14.00;91.10
6752;DHT22;3413;47.680;9.166;2023-05-17T07:38:03;14.00;91.10
6752;DHT22;3413;47.680;9.166;2023-05-17T07:43:05;14.10;91.10
6752;DHT22;3413;47.680;9.166;2023-05-17T07:48:07;14.20;91.20
6752;DHT22;3413;47.680;9.166;2023-05-17T07:53:10;14.30;91.30
6752;DHT22;3413;47.680;9.166;2023-05-17T07:58:12;14.40;91.30
6752;DHT22;3413;47.680;9.166;2023-05-17T08:03:14;14.50;91.40
6752;DHT22;3413;47.680;9.166;2023-05-17T08:08:18;14.70;91.50
6752;DHT22;3413;47.680;9.166;2023-05-17T08:13:22;14.80;91.50
6752;DHT22;3413;47.680;9.166;2023-05-17T08:18:25;15.00;91.60
6752;DHT22;3413;47.680;9.166;2023-05-17T08:23:27;15.00;91.60
6752;DHT22;3413;47.680;9.166;2023-05-17T08:28:31;15.20;91.70
6752;DHT22;3413;47.680;9.166;2023-05-17T08:33:33;15.30;91.60
6752;DHT22;3413;47.680;9.166;2023-05-17T08:38:38;15.40;91.70
6752;DHT22;3413;47.680;9.166;2023-05-17T08:43:41;15.40;91.60
6752;DHT22;3413;47.680;9.166;2023-05-17T08:48:45;15.50;91.70
6752;DHT22;3413;47.680;9.166;2023-05-17T08:53:51;15.50;92.00
6752;DHT22;3413;47.680;9.166;2023-05-17T08:58:54;15.60;91.70
6752;DHT22;3413;47.680;9.166;2023-05-17T09:03:59;15.60;91.70
6752;DHT22;3413;47.680;9.166;2023-05-17T09:09:04;15.80;91.80
6752;DHT22;3413;47.680;9.166;2023-05-17T09:14:09;15.90;91.90
6752;DHT22;3413;47.680;9.166;2023-05-17T09:19:15;16.10;92.00
6752;DHT22;3413;47.680;9.166;2023-05-17T09:24:28;16.30;92.00
6752;DHT22;3413;47.680;9.166;2023-05-17T09:34:53;16.60;92.10
6752;DHT22;3413;47.680;9.166;2023-05-17T09:40:00;16.80;92.10
6752;DHT22;3413;47.680;9.166;2023-05-17T09:45:04;16.90;92.00
6752;DHT22;3413;47.680;9.166;2023-05-17T09:50:19;17.10;92.10
6752;DHT22;3413;47.680;9.166;2023-05-17T09:55:29;17.20;92.00
6752;DHT22;3413;47.680;9.166;2023-05-17T10:00:33;17.30;92.00
6752;DHT22;3413;47.680;9.166;2023-05-17T10:05:42;17.70;92.20
6752;DHT22;3413;47.680;9.166;2023-05-17T10:10:47;17.80;92.10
6752;DHT22;3413;47.680;9.166;2023-05-17T10:15:51;17.90;92.10
6752;DHT22;3413;47.680;9.166;2023-05-17T10:20:58;17.90;92.00
6752;DHT22;3413;47.680;9.166;2023-05-17T10:26:03;17.80;91.80
6752;DHT22;3413;47.680;9.166;2023-05-17T10:31:08;17.90;91.90
6752;DHT22;3413;47.680;9.166;2023-05-17T10:36:16;18.10;92.00
6752;DHT22;3413;47.680;9.166;2023-05-17T10:41:22;18.10;91.90
6752;DHT22;3413;47.680;9.166;2023-05-17T10:46:28;18.10;91.90
6752;DHT22;3413;47.680;9.166;2023-05-17T10:51:37;18.20;91.80
6752;DHT22;3413;47.680;9.166;2023-05-17T10:56:47;18.10;91.70
6752;DHT22;3413;47.680;9.166;2023-05-17T11:02:11;18.20;91.60
6752;DHT22;3413;47.680;9.166;2023-05-17T11:28:20;18.30;91.20
6752;DHT22;3413;47.680;9.166;2023-05-17T11:33:37;18.30;91.30
6752;DHT22;3413;47.680;9.166;2023-05-17T11:38:41;18.40;91.10
6752;DHT22;3413;47.680;9.166;2023-05-17T11:43:46;18.40;91.10
6752;DHT22;3413;47.680;9.166;2023-05-17T11:48:51;18.40;90.90
6752;DHT22;3413;47.680;9.166;2023-05-17T11:53:58;18.40;90.90
6752;DHT22;3413;47.680;9.166;2023-05-17T11:59:02;18.40;90.90
6752;DHT22;3413;47.680;9.166;2023-05-17T12:04:06;18.50;90.80
6752;DHT22;3413;47.680;9.166;2023-05-17T12:09:10;18.70;91.00
6752;DHT22;3413;47.680;9.166;2023-05-17T12:14:18;18.80;91.00
6752;DHT22;3413;47.680;9.166;2023-05-17T12:19:24;19.10;91.20
6752;DHT22;3413;47.680;9.166;2023-05-17T12:24:40;19.30;91.20
6752;DHT22;3413;47.680;9.166;2023-05-17T12:29:47;19.50;91.20
6752;DHT22;3413;47.680;9.166;2023-05-17T12:34:53;19.40;90.90
6752;DHT22;3413;47.680;9.166;2023-05-17T12:40:01;19.40;91.00
6752;DHT22;3413;47.680;9.166;2023-05-17T12:45:12;19.60;91.00
6752;DHT22;3413;47.680;9.166;2023-05-17T12:50:27;19.50;90.90
6752;DHT22;3413;47.680;9.166;2023-05-17T12:55:38;19.50;90.80
6752;DHT22;3413;47.680;9.166;2023-05-17T13:00:58;19.50;90.90
6752;DHT22;3413;47.680;9.166;2023-05-17T13:06:02;19.70;90.80
6752;DHT22;3413;47.680;9.166;2023-05-17T13:16:10;20.20;90.90
6752;DHT22;3413;47.680;9.166;2023-05-17T13:21:12;20.20;90.80
6752;DHT22;3413;47.680;9.166;2023-05-17T13:26:15;20.20;90.80
6752;DHT22;3413;47.680;9.166;2023-05-17T13:31:18;20.30;90.80
6752;DHT22;3413;47.680;9.166;2023-05-17T13:36:20;20.20;90.50
6752;DHT22;3413;47.680;9.166;2023-05-17T13:41:22;20.10;90.50
6752;DHT22;3413;47.680;9.166;2023-05-17T13:46:24;20.10;90.60
6752;DHT22;3413;47.680;9.166;2023-05-17T13:51:29;20.30;90.50
6752;DHT22;3413;47.680;9.166;2023-05-17T13:56:31;20.20;90.30
6752;DHT22;3413;47.680;9.166;2023-05-17T14:01:35;20.10;90.20
6752;DHT22;3413;47.680;9.166;2023-05-17T14:06:38;19.90;90.10
6752;DHT22;3413;47.680;9.166;2023-05-17T14:11:40;19.80;90.00
6752;DHT22;3413;47.680;9.166;2023-05-17T14:16:42;19.80;90.00
6752;DHT22;3413;47.680;9.166;2023-05-17T14:21:45;19.90;90.00
6752;DHT22;3413;47.680;9.166;2023-05-17T14:26:47;20.00;89.80
6752;DHT22;3413;47.680;9.166;2023-05-17T14:31:50;19.90;89.60
6752;DHT22;3413;47.680;9.166;2023-05-17T14:36:52;19.80;89.40
6752;DHT22;3413;47.680;9.166;2023-05-17T14:41:54;19.80;89.50
6752;DHT22;3413;47.680;9.166;2023-05-17T14:46:56;19.80;89.30
6752;DHT22;3413;47.680;9.166;2023-05-17T14:51:59;19.80;89.30
6752;DHT22;3413;47.680;9.166;2023-05-17T14:57:03;19.80;89.20
6752;DHT22;3413;47.680;9.166;2023-05-17T15:02:07;19.70;89.00
6752;DHT22;3413;47.680;9.166;2023-05-17T15:07:10;19.60;88.90
6752;DHT22;3413;47.680;9.166;2023-05-17T15:12:12;19.50;88.60
6752;DHT22;3413;47.680;9.166;2023-05-17T15:17:16;19.50;88.50
6752;DHT22;3413;47.680;9.166;2023-05-17T15:22:19;19.40;88.50
6752;DHT22;3413;47.680;9.166;2023-05-17T15:27:21;19.30;88.30
6752;DHT22;3413;47.680;9.166;2023-05-17T15:32:23;19.30;88.30
6752;DHT22;3413;47.680;9.166;2023-05-17T15:37:25;19.40;88.20
6752;DHT22;3413;47.680;9.166;2023-05-17T15:42:27;19.40;88.00
6752;DHT22;3413;47.680;9.166;2023-05-17T15:47:29;19.30;87.80
6752;DHT22;3413;47.680;9.166;2023-05-17T15:52:44;19.20;87.80
6752;DHT22;3413;47.680;9.166;2023-05-17T15:57:48;19.10;87.60
6752;DHT22;3413;47.680;9.166;2023-05-17T16:02:50;19.00;87.30
6752;DHT22;3413;47.680;9.166;2023-05-17T16:07:53;19.00;87.40
6752;DHT22;3413;47.680;9.166;2023-05-17T16:12:55;19.00;87.40
6752;DHT22;3413;47.680;9.166;2023-05-17T16:17:57;19.10;87.60
6752;DHT22;3413;47.680;9.166;2023-05-17T16:22:59;19.20;87.50
6752;DHT22;3413;47.680;9.166;2023-05-17T16:28:01;19.30;87.40
6752;DHT22;3413;47.680;9.166;2023-05-17T16:33:05;19.30;87.40
6752;DHT22;3413;47.680;9.166;2023-05-17T16:38:09;19.40;87.50
6752;DHT22;3413;47.680;9.166;2023-05-17T16:43:11;19.30;87.40
6752;DHT22;3413;47.680;9.166;2023-05-17T16:48:16;19.20;87.40
6752;DHT22;3413;47.680;9.166;2023-05-17T16:53:18;19.20;87.30
6752;DHT22;3413;47.680;9.166;2023-05-17T16:58:20;19.20;87.00
6752;DHT22;3413;47.680;9.166;2023-05-17T17:03:22;19.00;86.80
6752;DHT22;3413;47.680;9.166;2023-05-17T17:08:25;18.80;86.60
6752;DHT22;3413;47.680;9.166;2023-05-17T17:13:27;18.70;86.70
6752;DHT22;3413;47.680;9.166;2023-05-17T17:18:29;18.70;86.90
6752;DHT22;3413;47.680;9.166;2023-05-17T17:23:31;18.60;86.80
6752;DHT22;3413;47.680;9.166;2023-05-17T17:28:33;18.60;86.80
6752;DHT22;3413;47.680;9.166;2023-05-17T17:33:35;18.60;86.70
6752;DHT22;3413;47.680;9.166;2023-05-17T17:38:38;18.60;86.70
6752;DHT22;3413;47.680;9.166;2023-05-17T17:43:40;18.50;86.60
6752;DHT22;3413;47.680;9.166;2023-05-17T17:48:43;18.50;86.60
6752;DHT22;3413;47.680;9.166;2023-05-17T17:53:46;18.50;86.50
6752;DHT22;3413;47.680;9.166;2023-05-17T17:58:49;18.50;86.50
6752;DHT22;3413;47.680;9.166;2023-05-17T18:03:54;18.50;86.40
6752;DHT22;3413;47.680;9.166;2023-05-17T18:08:56;18.30;86.20
6752;DHT22;3413;47.680;9.166;2023-05-17T18:14:00;18.10;86.30
6752;DHT22;3413;47.680;9.166;2023-05-17T18:19:05;17.90;86.70
6752;DHT22;3413;47.680;9.166;2023-05-17T18:24:07;17.80;86.00
6752;DHT22;3413;47.680;9.166;2023-05-17T18:29:13;17.70;85.80
6752;DHT22;3413;47.680;9.166;2023-05-17T18:34:16;17.50;85.70
6752;DHT22;3413;47.680;9.166;2023-05-17T18:39:18;17.40;85.50
6752;DHT22;3413;47.680;9.166;2023-05-17T18:44:20;17.30;85.40
6752;DHT22;3413;47.680;9.166;2023-05-17T18:49:22;17.30;85.50
6752;DHT22;3413;47.680;9.166;2023-05-17T18:54:24;17.20;85.40
6752;DHT22;3413;47.680;9.166;2023-05-17T18:59:26;17.20;85.30
6752;DHT22;3413;47.680;9.166;2023-05-17T19:04:29;17.00;85.30
6752;DHT22;3413;47.680;9.166;2023-05-17T19:09:35;16.90;85.20
6752;DHT22;3413;47.680;9.166;2023-05-17T19:14:37;16.80;85.10
6752;DHT22;3413;47.680;9.166;2023-05-17T19:19:41;16.80;85.10
6752;DHT22;3413;47.680;9.166;2023-05-17T19:24:45;16.50;85.00
6752;DHT22;3413;47.680;9.166;2023-05-17T19:29:47;16.40;85.00
6752;DHT22;3413;47.680;9.166;2023-05-17T19:34:49;16.40;84.90
6752;DHT22;3413;47.680;9.166;2023-05-17T19:39:51;16.20;84.80
6752;DHT22;3413;47.680;9.166;2023-05-17T19:44:54;16.10;84.60
6752;DHT22;3413;47.680;9.166;2023-05-17T19:49:55;16.00;84.50
6752;DHT22;3413;47.680;9.166;2023-05-17T19:54:58;15.90;84.60
6752;DHT22;3413;47.680;9.166;2023-05-17T20:00:00;15.80;84.30
6752;DHT22;3413;47.680;9.166;2023-05-17T20:05:05;15.70;84.30
6752;DHT22;3413;47.680;9.166;2023-05-17T20:10:07;15.70;84.40
6752;DHT22;3413;47.680;9.166;2023-05-17T20:15:10;15.60;84.20
6752;DHT22;3413;47.680;9.166;2023-05-17T20:20:12;15.60;84.10
6752;DHT22;3413;47.680;9.166;2023-05-17T20:25:14;15.60;84.10
6752;DHT22;3413;47.680;9.166;2023-05-17T20:30:16;15.40;84.60
6752;DHT22;3413;47.680;9.166;2023-05-17T20:35:18;15.40;84.10
6752;DHT22;3413;47.680;9.166;2023-05-17T20:40:19;15.30;83.90
6752;DHT22;3413;47.680;9.166;2023-05-17T20:45:22;15.20;83.90
6752;DHT22;3413;47.680;9.166;2023-05-17T20:50:24;15.20;83.80
6752;DHT22;3413;47.680;9.166;2023-05-17T20:55:26;15.10;83.70
6752;DHT22;3413;47.680;9.166;2023-05-17T21:00:28;15.00;83.80
6752;DHT22;3413;47.680;9.166;2023-05-17T21:05:33;14.90;83.50
6752;DHT22;3413;47.680;9.166;2023-05-17T21:10:37;14.90;83.70
6752;DHT22;3413;47.680;9.166;2023-05-17T21:15:41;14.80;83.50
6752;DHT22;3413;47.680;9.166;2023-05-17T21:20:43;14.70;83.40
6752;DHT22;3413;47.680;9.166;2023-05-17T21:25:50;14.60;83.40
6752;DHT22;3413;47.680;9.166;2023-05-17T21:30:53;14.50;83.40
6752;DHT22;3413;47.680;9.166;2023-05-17T21:35:58;14.40;83.10
6752;DHT22;3413;47.680;9.166;2023-05-17T21:41:02;14.30;83.20
6752;DHT22;3413;47.680;9.166;2023-05-17T21:46:05;14.30;83.00
6752;DHT22;3413;47.680;9.166;2023-05-17T21:51:08;14.30;83.00
6752;DHT22;3413;47.680;9.166;2023-05-17T21:56:11;14.30;82.90
6752;DHT22;3413;47.680;9.166;2023-05-17T22:01:16;14.30;83.00
6752;DHT22;3413;47.680;9.166;2023-05-17T22:06:25;14.20;82.90
6752;DHT22;3413;47.680;9.166;2023-05-17T22:11:29;14.20;83.00
6752;DHT22;3413;47.680;9.166;2023-05-17T22:16:32;14.10;83.10
6752;DHT22;3413;47.680;9.166;2023-05-17T22:21:37;14.10;83.20
6752;DHT22;3413;47.680;9.166;2023-05-17T22:26:42;14.00;83.00
6752;DHT22;3413;47.680;9.166;2023-05-17T22:31:45;14.00;83.20
6752;DHT22;3413;47.680;9.166;2023-05-17T22:36:48;13.90;83.00
6752;DHT22;3413;47.680;9.166;2023-05-17T22:41:51;13.80;82.90
6752;DHT22;3413;47.680;9.166;2023-05-17T22:46:54;13.80;83.00
6752;DHT22;3413;47.680;9.166;2023-05-17T22:52:00;13.70;83.00
6752;DHT22;3413;47.680;9.166;2023-05-17T22:57:08;13.60;82.90
6752;DHT22;3413;47.680;9.166;2023-05-17T23:02:12;13.50;82.90
6752;DHT22;3413;47.680;9.166;2023-05-17T23:07:16;13.40;82.80
6752;DHT22;3413;47.680;9.166;2023-05-17T23:12:19;13.30;82.80
6752;DHT22;3413;47.680;9.166;2023-05-17T23:17:28;13.30;82.80
6752;DHT22;3413;47.680;9.166;2023-05-17T23:22:34;13.30;82.80
6752;DHT22;3413;47.680;9.166;2023-05-17T23:27:41;13.20;82.70
6752;DHT22;3413;47.680;9.166;2023-05-17T23:32:46;13.20;82.80
6752;DHT22;3413;47.680;9.166;2023-05-17T23:37:53;13.10;82.70
6752;DHT22;3413;47.680;9.166;2023-05-17T23:43:00;13.20;82.80
6752;DHT22;3413;47.680;9.166;2023-05-17T23:48:04;13.20;82.80
6752;DHT22;3413;47.680;9.166;2023-05-17T23:53:12;13.10;83.00
6752;DHT22;3413;47.680;9.166;2023-05-17T23:58:15;13.20;83.00
